Time;durP1;ratioP1;P1;durP2;ratioP2;P2;SDS_P1;SDS_P2;PMS_P1;PMS_P2;Temp;Humidity;BMP_temperature;BMP_pressure;BME280_temperature;BME280_humidity;BME280_pressure;Samples;Min_cycle;Max_cycle;Signal;HPM_P1;HPM_P2
2023/09/27 06:30:07;;;;;;;21.00;17.48;;;15.50;99.90;;;;;;6312368;22;20019;-91
2023/09/27 06:34:14;;;;;;;;;;;;;;;;;;;;;
2023/09/27 06:38:00;;;;;;;;;;;;;;;;;;;;;
2023/09/27 07:04:18;;;;;;;;;;;;;;;;;;;;;
2023/09/27 07:08:35;;;;;;;;;;;;;;;;;;;;;
2023/09/27 07:55:35;;;;;;;;;;;;;;;;;;;;;
2023/09/27 08:25:50;;;;;;;;;;;;;;;;;;;;;
2023/09/27 08:33:14;;;;;;;;;;;;;;;;;;;;;
2023/09/27 08:40:49;;;;;;;34.38;25.23;;;16.50;99.90;;;;;;4918182;29;20059;-93
2023/09/27 08:44:14;;;;;;;;;;;;;;;;;;;;;
2023/09/27 08:52:04;;;;;;;;;;;;;;;;;;;;;
2023/09/27 08:55:05;;;;;;;;;;;;;;;;;;;;;
2023/09/27 08:58:03;;;;;;;29.90;23.95;;;16.80;99.90;;;;;;5026833;28;20036;-96
2023/09/27 10:02:57;;;;;;;29.88;21.05;;;18.00;99.90;;;;;;6192648;23;20009;-92
2023/09/27 10:06:16;;;;;;;;;;;;;;;;;;;;;
2023/09/27 10:12:40;;;;;;;;;;;;;;;;;;;;;
2023/09/27 10:15:43;;;;;;;30.40;20.15;;;18.20;99.90;;;;;;6207803;23;20019;-92
2023/09/27 10:18:43;;;;;;;33.50;21.35;;;18.30;99.90;;;;;;6196164;23;20092;-93
2023/09/27 10:21:59;;;;;;;;;;;;;;;;;;;;;
2023/09/27 10:36:15;;;;;;;25.88;18.63;;;18.60;99.90;;;;;;6226041;23;20020;-94
2023/09/27 10:39:18;;;;;;;28.13;19.60;;;18.60;99.90;;;;;;6194738;23;19992;-96
2023/09/27 10:42:34;;;;;;;;;;;;;;;;;;;;;
2023/09/27 11:29:43;;;;;;;22.55;14.73;;;19.10;99.90;;;;;;6239569;22;20034;-91
2023/09/27 11:32:41;;;;;;;19.63;12.65;;;19.10;99.90;;;;;;6171495;23;20369;-96
2023/09/27 11:35:30;;;;;;;18.25;12.85;;;19.10;99.90;;;;;;6193016;23;20062;-92
2023/09/27 11:38:21;;;;;;;19.75;12.65;;;19.20;99.90;;;;;;6168831;23;20008;-92
2023/09/27 11:40:54;;;;;;;18.88;12.23;;;19.20;99.90;;;;;;6169195;23;20024;-91
2023/09/27 11:43:36;;;;;;;19.13;12.48;;;19.20;99.90;;;;;;6168735;23;20005;-92
2023/09/27 11:46:34;;;;;;;;;;;;;;;;;;;;;
2023/09/27 11:49:14;;;;;;;19.02;11.75;;;19.30;99.90;;;;;;6167670;23;20107;-93
2023/09/27 12:50:09;;;;;;;;;;;;;;;;;;;;;
2023/09/27 12:52:45;;;;;;;11.95;6.10;;;20.50;99.90;;;;;;6171088;23;20111;-93
2023/09/27 12:55:51;;;;;;;;;;;;;;;;;;;;;
2023/09/27 12:59:02;;;;;;;13.15;6.82;;;20.70;99.90;;;;;;6194090;23;20008;-93
2023/09/27 16:51:11;;;;;;;10.70;4.80;;;20.50;99.90;;;;;;5110278;27;1286735;-59
2023/09/27 16:53:37;;;;;;;8.52;4.53;;;20.40;99.90;;;;;;5119092;28;20046;-57
2023/09/27 16:56:03;;;;;;;10.23;4.40;;;20.50;99.90;;;;;;5111029;28;20036;-57
2023/09/27 16:58:29;;;;;;;13.50;4.70;;;20.50;99.90;;;;;;5111325;28;20035;-58
2023/09/27 17:01:00;;;;;;;9.30;3.83;;;20.50;99.90;;;;;;5126628;28;20058;-57
2023/09/27 17:03:25;;;;;;;8.48;4.18;;;20.50;99.90;;;;;;5136884;27;20023;-58
2023/09/27 17:05:52;;;;;;;12.10;4.80;;;20.50;99.90;;;;;;5128772;27;20730;-61
2023/09/27 17:08:18;;;;;;;9.38;4.40;;;20.60;99.90;;;;;;5145570;27;20058;-59
2023/09/27 17:10:44;;;;;;;9.55;4.50;;;20.60;99.90;;;;;;5150041;27;20073;-60
2023/09/27 17:13:10;;;;;;;10.13;4.38;;;20.60;99.90;;;;;;5125577;27;20461;-59
2023/09/27 17:15:36;;;;;;;14.60;4.97;;;20.70;99.90;;;;;;5109558;28;20036;-58
2023/09/27 17:18:03;;;;;;;9.30;4.95;;;20.70;99.90;;;;;;5111345;28;20032;-59
2023/09/27 17:20:29;;;;;;;11.45;4.82;;;20.70;99.90;;;;;;5110605;28;20457;-59
2023/09/27 17:22:54;;;;;;;7.90;5.00;;;20.70;99.90;;;;;;5111553;28;20434;-71
2023/09/27 17:25:20;;;;;;;14.43;5.10;;;20.70;99.90;;;;;;5110496;28;20039;-57
2023/09/27 17:27:46;;;;;;;9.95;4.70;;;20.80;99.90;;;;;;5110176;28;20404;-58
2023/09/27 17:30:12;;;;;;;8.77;4.22;;;20.80;99.90;;;;;;5111045;27;20042;-59
2023/09/27 17:32:38;;;;;;;12.07;4.70;;;20.80;99.90;;;;;;5127396;27;20031;-60
2023/09/27 17:35:05;;;;;;;10.70;5.00;;;20.80;99.90;;;;;;5129550;28;20050;-60
2023/09/27 17:37:31;;;;;;;10.68;4.45;;;20.80;99.90;;;;;;5128656;28;20027;-57
2023/09/27 17:39:57;;;;;;;7.63;4.43;;;20.80;99.90;;;;;;5111304;28;20043;-58
2023/09/27 17:42:23;;;;;;;13.07;4.35;;;20.80;99.90;;;;;;5109797;28;20666;-59
2023/09/27 17:44:49;;;;;;;8.10;4.40;;;20.80;99.90;;;;;;5128458;28;20031;-61
2023/09/27 17:47:15;;;;;;;8.52;4.22;;;20.70;99.90;;;;;;5128109;28;20043;-61
2023/09/27 17:49:42;;;;;;;6.90;4.40;;;20.80;99.90;;;;;;5130304;27;20315;-58
2023/09/27 17:52:07;;;;;;;7.47;4.25;;;20.70;99.90;;;;;;5118197;27;20322;-58
2023/09/27 17:54:33;;;;;;;8.75;4.25;;;20.70;99.90;;;;;;5130566;28;20036;-59
2023/09/27 17:56:59;;;;;;;7.65;3.80;;;20.70;99.90;;;;;;5121099;28;20123;-61
2023/09/27 17:59:26;;;;;;;8.65;3.95;;;20.70;99.90;;;;;;5116741;28;20025;-58
2023/09/27 18:01:54;;;;;;;7.40;4.10;;;20.70;99.90;;;;;;5116772;28;20044;-58
2023/09/27 18:04:20;;;;;;;7.47;3.90;;;20.70;99.90;;;;;;5103044;28;20059;-59
2023/09/27 18:06:47;;;;;;;10.23;3.97;;;20.70;99.90;;;;;;5095017;28;20062;-59
2023/09/27 18:09:13;;;;;;;8.13;3.72;;;20.70;99.90;;;;;;5097791;28;20373;-59
2023/09/27 18:11:39;;;;;;;7.00;4.20;;;20.60;99.90;;;;;;5095300;28;20111;-59
2023/09/27 18:14:05;;;;;;;6.07;3.60;;;20.60;99.90;;;;;;5096138;28;20039;-58
2023/09/27 18:16:31;;;;;;;6.55;3.90;;;20.70;99.90;;;;;;5095830;28;20035;-58
2023/09/27 18:18:58;;;;;;;10.85;4.00;;;20.60;99.90;;;;;;5096986;28;20040;-61
2023/09/27 18:21:24;;;;;;;6.75;3.72;;;20.60;99.90;;;;;;5094917;28;20085;-60
2023/09/27 18:23:50;;;;;;;7.57;3.67;;;20.60;99.90;;;;;;5095722;28;20032;-59
2023/09/27 18:26:16;;;;;;;6.80;3.55;;;20.60;99.90;;;;;;5128842;27;20032;-59
2023/09/27 18:28:42;;;;;;;9.25;3.47;;;20.60;99.90;;;;;;5096982;28;20137;-59
2023/09/27 18:31:08;;;;;;;8.35;3.70;;;20.60;99.90;;;;;;5095233;28;20704;-59
2023/09/27 18:33:34;;;;;;;6.47;3.58;;;20.60;99.90;;;;;;5081510;28;20046;-61
2023/09/27 18:36:02;;;;;;;7.55;3.67;;;20.60;99.90;;;;;;5115923;28;20024;-59
2023/09/27 18:38:28;;;;;;;6.78;3.65;;;20.60;99.90;;;;;;5116128;28;20116;-59
2023/09/27 18:40:55;;;;;;;6.55;3.75;;;20.60;99.90;;;;;;5096285;28;20457;-59
2023/09/27 18:43:20;;;;;;;5.53;3.40;;;20.60;99.90;;;;;;5095676;28;20032;-59
2023/09/27 18:45:46;;;;;;;5.35;3.33;;;20.60;99.90;;;;;;5095402;28;20106;-66
2023/09/27 18:48:18;;;;;;;7.60;4.30;;;20.60;99.90;;;;;;5094868;28;20042;-59
2023/09/27 18:50:48;;;;;;;6.65;3.55;;;20.60;99.90;;;;;;5113159;28;20718;-57
2023/09/27 18:53:15;;;;;;;6.93;3.70;;;20.60;99.90;;;;;;5115334;28;20081;-58
2023/09/27 18:55:40;;;;;;;6.82;3.85;;;20.50;99.90;;;;;;5115284;28;20027;-57
2023/09/27 18:58:08;;;;;;;8.02;3.60;;;20.60;99.90;;;;;;5114922;28;20322;-57
2023/09/27 19:00:34;;;;;;;5.80;3.70;;;20.50;99.90;;;;;;5110844;28;20526;-58
2023/09/27 19:03:02;;;;;;;6.35;3.70;;;20.50;99.90;;;;;;5114556;28;20422;-57
2023/09/27 19:05:28;;;;;;;8.85;4.10;;;20.50;99.90;;;;;;5098789;28;20066;-58
2023/09/27 19:07:54;;;;;;;7.78;3.97;;;20.50;99.90;;;;;;5094357;28;20105;-58
2023/09/27 19:10:20;;;;;;;7.70;4.03;;;20.50;99.90;;;;;;5095725;28;20036;-60
2023/09/27 19:12:46;;;;;;;6.95;3.83;;;20.50;99.90;;;;;;5093679;28;20034;-58
2023/09/27 19:15:12;;;;;;;7.15;4.40;;;20.50;99.90;;;;;;5093344;28;20469;-58
2023/09/27 19:17:38;;;;;;;9.63;4.63;;;20.50;99.90;;;;;;5094171;28;20062;-59
2023/09/27 19:20:05;;;;;;;8.07;4.20;;;20.50;99.90;;;;;;5095351;28;20084;-57
2023/09/27 19:22:34;;;;;;;7.95;4.45;;;20.50;99.90;;;;;;5093172;28;20036;-58
2023/09/27 19:25:00;;;;;;;6.55;4.20;;;20.50;99.90;;;;;;5094246;28;20184;-58
2023/09/27 19:27:26;;;;;;;7.38;4.97;;;20.50;99.90;;;;;;5094595;28;20043;-57
2023/09/27 19:29:52;;;;;;;8.95;4.57;;;20.50;99.90;;;;;;5101014;28;20335;-62
2023/09/27 19:32:18;;;;;;;9.55;4.95;;;20.50;99.90;;;;;;5113020;28;20059;-60
2023/09/27 19:34:44;;;;;;;8.05;4.78;;;20.50;99.90;;;;;;5108536;28;20028;-57
2023/09/27 19:37:10;;;;;;;6.88;5.00;;;20.50;99.90;;;;;;5093758;28;20043;-57
2023/09/27 19:39:36;;;;;;;7.25;5.13;;;20.50;99.90;;;;;;5095159;28;20040;-58
2023/09/27 19:42:05;;;;;;;9.57;5.20;;;20.50;99.90;;;;;;5093675;28;20106;-59
2023/09/27 19:44:31;;;;;;;7.18;5.43;;;20.50;99.90;;;;;;5094036;28;20111;-58
2023/09/27 19:46:57;;;;;;;8.75;5.32;;;20.50;99.90;;;;;;5093227;28;20111;-57
2023/09/27 19:49:22;;;;;;;8.23;5.47;;;20.50;99.90;;;;;;5094748;28;20047;-57
2023/09/27 19:51:48;;;;;;;8.07;5.53;;;20.50;99.90;;;;;;5093841;28;20119;-62
2023/09/27 19:54:14;;;;;;;8.18;5.45;;;20.50;99.90;;;;;;5095191;28;20118;-59
2023/09/27 19:56:44;;;;;;;9.32;5.97;;;20.50;99.90;;;;;;5102579;28;20039;-58
2023/09/27 19:59:10;;;;;;;8.40;5.45;;;20.50;99.90;;;;;;5113835;28;20318;-56
2023/09/27 20:01:37;;;;;;;9.77;6.10;;;20.50;99.90;;;;;;5096425;28;20036;-60
2023/09/27 20:04:03;;;;;;;7.95;5.88;;;20.50;99.90;;;;;;5075575;28;20419;-60
2023/09/27 20:06:35;;;;;;;8.52;5.30;;;20.50;99.90;;;;;;5093571;28;20065;-57
2023/09/27 20:09:03;;;;;;;9.73;6.07;;;20.50;99.90;;;;;;5093287;28;20480;-58
2023/09/27 20:11:29;;;;;;;7.85;6.00;;;20.50;99.90;;;;;;5104134;28;20034;-60
2023/09/27 20:13:55;;;;;;;10.13;6.13;;;20.40;99.90;;;;;;5113710;28;20031;-64
2023/09/27 20:16:21;;;;;;;8.20;6.45;;;20.50;99.90;;;;;;5113581;28;20365;-59
2023/09/27 20:18:47;;;;;;;6.88;5.80;;;20.40;99.90;;;;;;5093802;28;20035;-59
2023/09/27 20:21:13;;;;;;;7.40;5.80;;;20.50;99.90;;;;;;5094563;28;20039;-59
2023/09/27 20:23:40;;;;;;;8.88;6.05;;;20.40;99.90;;;;;;5093113;28;20047;-57
2023/09/27 20:26:06;;;;;;;8.07;6.25;;;20.50;99.90;;;;;;5091895;28;20039;-59
2023/09/27 20:28:32;;;;;;;9.10;6.30;;;20.40;99.90;;;;;;5094410;28;20032;-58
2023/09/27 20:30:58;;;;;;;7.93;5.93;;;20.40;99.90;;;;;;5098083;28;20119;-59
2023/09/27 20:33:24;;;;;;;9.30;6.40;;;20.40;99.90;;;;;;5094331;28;20053;-58
2023/09/27 20:35:51;;;;;;;9.25;6.65;;;20.40;99.90;;;;;;5099619;28;20024;-57
2023/09/27 20:38:17;;;;;;;8.57;6.50;;;20.40;99.90;;;;;;5113315;28;20066;-58
2023/09/27 20:40:43;;;;;;;8.82;6.75;;;20.40;99.90;;;;;;5104484;28;20048;-58
2023/09/27 20:43:09;;;;;;;8.95;6.72;;;20.40;99.90;;;;;;5092775;28;20036;-58
2023/09/27 20:45:35;;;;;;;10.35;6.68;;;20.40;99.90;;;;;;5093024;28;20032;-62
2023/09/27 20:48:01;;;;;;;9.95;6.65;;;20.40;99.90;;;;;;5092490;28;20043;-59
2023/09/27 20:50:27;;;;;;;9.27;6.60;;;20.40;99.90;;;;;;5093660;28;20039;-59
2023/09/27 20:52:53;;;;;;;10.35;7.13;;;20.40;99.90;;;;;;5091771;28;20036;-58
2023/09/27 20:55:19;;;;;;;10.50;7.40;;;20.40;99.90;;;;;;5092711;28;20745;-59
2023/09/27 20:57:47;;;;;;;9.93;7.53;;;20.40;99.90;;;;;;5092909;28;20032;-59
2023/09/27 21:00:13;;;;;;;10.13;7.95;;;20.40;99.90;;;;;;5084892;28;20330;-60
2023/09/27 21:02:39;;;;;;;9.73;7.72;;;20.40;99.90;;;;;;5113045;28;20445;-56
2023/09/27 21:05:07;;;;;;;10.05;8.13;;;20.40;99.90;;;;;;5111035;28;20063;-58
2023/09/27 21:07:33;;;;;;;11.02;8.10;;;20.40;99.90;;;;;;5113202;28;20130;-57
2023/09/27 21:09:59;;;;;;;9.65;8.02;;;20.40;99.90;;;;;;5111320;28;20077;-57
2023/09/27 21:12:25;;;;;;;15.73;9.55;;;20.40;99.90;;;;;;5112916;28;20740;-56
2023/09/27 21:14:53;;;;;;;11.00;9.07;;;20.40;99.90;;;;;;5113050;28;20058;-57
2023/09/27 21:17:20;;;;;;;11.20;9.57;;;20.40;99.90;;;;;;5095322;28;20036;-58
2023/09/27 21:19:46;;;;;;;11.38;9.20;;;20.40;99.90;;;;;;5099274;28;20028;-59
2023/09/27 21:22:11;;;;;;;10.88;9.18;;;20.40;99.90;;;;;;5111573;28;20040;-57
2023/09/27 21:24:37;;;;;;;11.13;8.95;;;20.40;99.90;;;;;;5111857;28;20435;-58
2023/09/27 21:27:03;;;;;;;15.02;9.90;;;20.40;99.90;;;;;;5112738;28;20032;-64
2023/09/27 21:29:29;;;;;;;13.30;9.77;;;20.40;99.90;;;;;;5110026;28;20024;-57
2023/09/27 21:31:56;;;;;;;14.57;10.15;;;20.40;99.90;;;;;;5112821;28;20035;-57
2023/09/27 21:34:22;;;;;;;13.05;10.98;;;20.40;99.90;;;;;;5110916;28;20038;-57
2023/09/27 21:36:48;;;;;;;13.82;10.13;;;20.40;99.90;;;;;;5115112;28;20031;-56
2023/09/27 21:39:14;;;;;;;12.65;10.55;;;20.40;99.90;;;;;;5116860;28;20035;-60
2023/09/27 21:41:41;;;;;;;14.50;10.15;;;20.40;99.90;;;;;;5115085;28;20039;-57
2023/09/27 21:44:07;;;;;;;12.38;10.40;;;20.40;99.90;;;;;;5116467;28;20036;-57
2023/09/27 21:46:33;;;;;;;14.25;10.70;;;20.40;99.90;;;;;;5116594;28;20035;-58
2023/09/27 21:48:58;;;;;;;14.18;10.77;;;20.30;99.90;;;;;;5116398;28;20035;-60
2023/09/27 21:51:24;;;;;;;14.02;10.85;;;20.30;99.90;;;;;;5114288;28;20096;-57
2023/09/27 21:53:50;;;;;;;12.75;10.40;;;20.40;99.90;;;;;;5116469;28;20020;-57
2023/09/27 21:56:18;;;;;;;13.40;11.07;;;20.30;99.90;;;;;;5115031;28;20127;-58
2023/09/27 21:58:44;;;;;;;12.60;10.75;;;20.30;99.90;;;;;;5116494;28;20066;-58
2023/09/27 22:01:12;;;;;;;12.38;11.07;;;20.40;99.90;;;;;;5102993;28;20419;-57
2023/09/27 22:03:41;;;;;;;12.82;10.98;;;20.40;99.90;;;;;;5094850;28;20035;-58
2023/09/27 22:06:08;;;;;;;15.48;11.93;;;20.30;99.90;;;;;;5096925;28;20456;-58
2023/09/27 22:08:34;;;;;;;12.93;10.85;;;20.30;99.90;;;;;;5095951;28;20058;-59
2023/09/27 22:11:04;;;;;;;12.20;10.75;;;20.40;99.90;;;;;;5095538;28;20043;-59
2023/09/27 22:13:31;;;;;;;12.20;10.23;;;20.30;99.90;;;;;;5094536;28;20492;-59
2023/09/27 22:16:07;;;;;;;11.35;10.02;;;20.30;99.90;;;;;;5095678;28;20024;-61
2023/09/27 22:18:33;;;;;;;12.02;10.23;;;20.30;99.90;;;;;;5094486;28;20028;-58
2023/09/27 22:21:13;;;;;;;12.15;10.18;;;20.30;99.90;;;;;;5096725;28;20051;-59
2023/09/27 22:23:40;;;;;;;11.82;9.77;;;20.30;99.90;;;;;;5094721;28;20043;-58
2023/09/27 22:26:15;;;;;;;11.93;9.13;;;20.30;99.90;;;;;;5095768;28;20080;-59
2023/09/27 22:28:45;;;;;;;11.27;9.43;;;20.30;99.90;;;;;;5095631;28;20032;-59
2023/09/27 22:31:12;;;;;;;11.70;9.40;;;20.30;99.90;;;;;;5096027;28;20122;-58
2023/09/27 22:33:43;;;;;;;10.43;9.07;;;20.30;99.90;;;;;;5095369;28;20530;-59
2023/09/27 22:36:10;;;;;;;11.38;8.75;;;20.30;99.90;;;;;;5096419;28;20028;-61
2023/09/27 22:38:36;;;;;;;12.50;9.30;;;20.30;99.90;;;;;;5110981;28;20044;-60
2023/09/27 22:41:14;;;;;;;11.25;8.98;;;20.30;99.90;;;;;;5096246;28;20053;-61
2023/09/27 22:43:42;;;;;;;10.52;8.25;;;20.30;99.90;;;;;;5095220;28;20082;-59
2023/09/27 22:46:09;;;;;;;10.93;8.65;;;20.30;99.90;;;;;;5095141;28;20040;-61
2023/09/27 22:48:35;;;;;;;10.48;8.40;;;20.30;99.90;;;;;;5127785;27;20036;-59
2023/09/27 22:51:03;;;;;;;9.98;8.40;;;20.30;99.90;;;;;;5095790;28;20352;-59
2023/09/27 22:53:29;;;;;;;10.25;7.80;;;20.30;99.90;;;;;;5093746;28;20281;-60
2023/09/27 22:55:59;;;;;;;11.68;8.23;;;20.30;99.90;;;;;;5094965;28;20032;-59
2023/09/27 22:58:29;;;;;;;9.60;7.97;;;20.30;99.90;;;;;;5094785;28;20369;-59
2023/09/27 23:00:58;;;;;;;9.82;8.05;;;20.30;99.90;;;;;;5108840;28;20137;-61
2023/09/27 23:03:29;;;;;;;9.35;7.55;;;20.30;99.90;;;;;;5113828;28;20493;-58
2023/09/27 23:05:56;;;;;;;8.88;7.55;;;20.30;99.90;;;;;;5113370;28;20066;-60
2023/09/27 23:08:26;;;;;;;8.80;7.47;;;20.30;99.90;;;;;;5114801;28;20161;-58
2023/09/27 23:10:57;;;;;;;9.35;7.35;;;20.30;99.90;;;;;;5115240;28;20118;-58
2023/09/27 23:15:58;;;;;;;10.02;6.90;;;20.30;99.90;;;;;;5114538;28;20031;-59
2023/09/27 23:18:29;;;;;;;8.48;7.00;;;20.30;99.90;;;;;;5114774;28;20035;-59
2023/09/27 23:21:18;;;;;;;9.48;7.40;;;20.30;99.90;;;;;;5112941;28;20449;-60
2023/09/27 23:23:59;;;;;;;9.13;7.05;;;20.30;99.90;;;;;;5114923;28;20038;-61
2023/09/27 23:27:01;;;;;;;10.18;6.80;;;20.30;99.90;;;;;;5114675;28;20035;-57
2023/09/27 23:31:51;;;;;;;8.50;6.70;;;20.30;99.90;;;;;;5112629;28;20119;-57
2023/09/27 23:34:20;;;;;;;9.95;6.82;;;20.30;99.90;;;;;;5113337;28;20115;-58
2023/09/27 23:36:49;;;;;;;10.52;7.10;;;20.30;99.90;;;;;;5112687;28;20027;-58
2023/09/27 23:39:21;;;;;;;9.88;7.15;;;20.30;99.90;;;;;;5114472;28;20127;-58
2023/09/27 23:41:55;;;;;;;8.93;6.85;;;20.30;99.90;;;;;;5112639;28;20046;-58
2023/09/27 23:44:23;;;;;;;9.38;6.88;;;20.30;99.90;;;;;;5114117;28;20070;-57
2023/09/27 23:46:53;;;;;;;9.55;6.40;;;20.30;99.90;;;;;;5113939;28;20036;-60
2023/09/27 23:49:19;;;;;;;9.07;6.95;;;20.30;99.90;;;;;;5113895;28;20497;-65
2023/09/27 23:51:45;;;;;;;9.13;6.82;;;20.30;99.90;;;;;;5112435;28;20059;-59
2023/09/27 23:54:12;;;;;;;8.63;6.47;;;20.30;99.90;;;;;;5114046;28;20062;-60
2023/09/27 23:56:38;;;;;;;8.40;6.30;;;20.30;99.90;;;;;;5113826;28;20031;-60
2023/09/27 23:59:08;;;;;;;8.50;6.07;;;20.30;99.90;;;;;;5111939;28;20038;-58
